createdAt,value
2018-06-14T00:00:42.463Z,15.60
2018-06-14T00:03:11.102Z,15.50
2018-06-14T00:05:39.723Z,15.50
2018-06-14T00:08:08.520Z,15.50
2018-06-14T00:10:37.109Z,15.50
2018-06-14T00:13:05.775Z,15.50
2018-06-14T00:15:34.681Z,15.50
2018-06-14T00:18:03.452Z,15.50
2018-06-14T00:20:32.948Z,15.50
2018-06-14T00:23:02.157Z,15.50
2018-06-14T00:25:30.833Z,15.50
2018-06-14T00:27:59.598Z,15.50
2018-06-14T00:30:28.279Z,15.40
2018-06-14T00:32:56.818Z,15.30
2018-06-14T00:35:25.372Z,15.30
2018-06-14T00:37:54.007Z,15.30
2018-06-14T00:40:22.568Z,15.20
2018-06-14T00:42:51.139Z,15.20
2018-06-14T00:45:20.364Z,15.10
2018-06-14T00:47:49.048Z,15.10
2018-06-14T00:50:17.753Z,15.00
2018-06-14T00:52:46.305Z,15.00
2018-06-14T00:55:14.895Z,14.90
2018-06-14T00:57:43.422Z,14.80
2018-06-14T01:00:12.069Z,14.70
2018-06-14T01:02:40.661Z,14.80
2018-06-14T01:05:09.268Z,14.80
2018-06-14T01:07:37.903Z,14.80
2018-06-14T01:10:06.698Z,14.90
2018-06-14T01:12:35.482Z,14.90
2018-06-14T01:15:04.095Z,14.90
2018-06-14T01:17:32.613Z,14.90
2018-06-14T01:20:01.187Z,14.90
2018-06-14T01:22:29.790Z,14.80
2018-06-14T01:24:58.417Z,14.70
2018-06-14T01:27:26.970Z,14.80
2018-06-14T01:29:55.583Z,14.70
2018-06-14T01:32:24.081Z,14.80
2018-06-14T01:34:52.729Z,14.80
2018-06-14T01:38:25.988Z,14.80
2018-06-14T01:40:55.004Z,14.80
2018-06-14T01:43:23.872Z,14.90
2018-06-14T01:45:53.342Z,14.90
2018-06-14T01:48:21.850Z,14.90
2018-06-14T01:50:50.405Z,15.00
2018-06-14T01:53:18.955Z,15.00
2018-06-14T01:55:48.165Z,14.90
2018-06-14T01:58:16.625Z,15.00
2018-06-14T02:00:45.749Z,15.00
2018-06-14T02:03:14.276Z,14.90
2018-06-14T02:05:42.805Z,15.00
2018-06-14T02:08:11.388Z,15.00
2018-06-14T02:10:39.896Z,15.00
2018-06-14T02:13:09.172Z,14.90
2018-06-14T02:15:37.673Z,14.90
2018-06-14T02:18:06.246Z,14.90
2018-06-14T02:20:34.732Z,14.90
2018-06-14T02:23:03.269Z,14.90
2018-06-14T02:25:31.890Z,14.90
2018-06-14T02:28:00.366Z,15.00
2018-06-14T02:30:28.938Z,15.00
2018-06-14T02:32:57.498Z,15.00
2018-06-14T02:35:25.958Z,14.90
2018-06-14T02:37:54.427Z,14.90
2018-06-14T02:40:22.946Z,14.90
2018-06-14T02:42:51.560Z,14.90
2018-06-14T02:45:20.075Z,14.80
2018-06-14T02:47:48.570Z,14.60
2018-06-14T02:50:17.127Z,14.50
2018-06-14T02:52:45.628Z,14.60
2018-06-14T02:55:14.156Z,14.50
2018-06-14T02:57:43.294Z,14.50
2018-06-14T03:00:12.614Z,14.40
2018-06-14T03:02:41.085Z,14.40
2018-06-14T03:05:09.683Z,14.50
2018-06-14T03:07:38.186Z,14.60
2018-06-14T03:10:29.940Z,14.60
2018-06-14T03:12:58.405Z,14.70
2018-06-14T03:15:26.954Z,14.60
2018-06-14T03:17:55.520Z,14.60
2018-06-14T03:20:25.587Z,14.60
2018-06-14T03:22:54.957Z,14.60
2018-06-14T03:25:23.690Z,14.70
2018-06-14T03:27:52.416Z,14.70
2018-06-14T03:30:21.538Z,14.60
2018-06-14T03:32:50.954Z,14.70
2018-06-14T03:35:20.199Z,14.60
2018-06-14T03:37:48.994Z,14.60
2018-06-14T03:40:17.518Z,14.60
2018-06-14T03:42:46.809Z,14.60
2018-06-14T03:45:20.686Z,14.60
2018-06-14T03:47:50.687Z,14.60
2018-06-14T03:50:19.373Z,14.60
2018-06-14T03:52:48.081Z,14.60
2018-06-14T03:55:16.674Z,14.70
2018-06-14T03:57:45.418Z,14.70
2018-06-14T04:00:14.285Z,14.60
2018-06-14T04:02:42.836Z,14.70
2018-06-14T04:05:11.370Z,14.70
2018-06-14T04:07:40.789Z,14.70
2018-06-14T04:10:09.362Z,14.60
2018-06-14T04:12:37.899Z,14.70
2018-06-14T04:15:06.625Z,14.60
2018-06-14T04:17:35.336Z,14.60
2018-06-14T04:20:03.993Z,14.50
2018-06-14T04:25:01.259Z,14.50
2018-06-14T04:29:58.065Z,14.60
2018-06-14T04:32:27.229Z,14.70
2018-06-14T04:34:55.789Z,14.70
2018-06-14T04:37:24.410Z,14.70
2018-06-14T04:39:52.998Z,14.70
2018-06-14T04:42:22.223Z,14.80
2018-06-14T04:44:50.760Z,14.80
2018-06-14T04:47:19.645Z,14.80
2018-06-14T04:52:17.738Z,14.90
2018-06-14T04:54:48.326Z,15.00
2018-06-14T04:57:18.492Z,15.10
2018-06-14T04:59:47.037Z,15.20
2018-06-14T05:02:15.575Z,15.30
2018-06-14T05:04:44.186Z,15.20
2018-06-14T05:07:12.689Z,15.40
2018-06-14T05:09:41.739Z,15.40
2018-06-14T05:12:10.238Z,15.40
2018-06-14T05:14:38.800Z,15.50
2018-06-14T05:17:08.422Z,15.50
2018-06-14T05:19:36.968Z,15.60
2018-06-14T05:22:05.542Z,15.60
2018-06-14T05:24:34.071Z,15.50
2018-06-14T05:27:03.447Z,15.50
2018-06-14T05:29:31.984Z,15.50
2018-06-14T05:32:00.722Z,15.60
2018-06-14T05:34:29.995Z,15.60
2018-06-14T05:36:58.539Z,15.60
2018-06-14T05:39:27.100Z,15.50
2018-06-14T05:41:55.815Z,15.40
2018-06-14T05:44:24.414Z,15.50
2018-06-14T05:46:52.969Z,15.60
2018-06-14T05:49:21.463Z,15.70
2018-06-14T05:51:50.004Z,15.80
2018-06-14T05:54:18.647Z,15.90
2018-06-14T05:56:47.191Z,16.00
2018-06-14T05:59:15.717Z,15.70
2018-06-14T06:01:44.243Z,15.50
2018-06-14T06:04:12.801Z,15.60
2018-06-14T06:06:42.041Z,15.60
2018-06-14T06:09:12.202Z,15.80
2018-06-14T06:11:41.074Z,15.80
2018-06-14T06:14:09.732Z,15.90
2018-06-14T06:16:38.324Z,16.10
2018-06-14T06:19:06.809Z,15.90
2018-06-14T06:21:35.404Z,16.10
2018-06-14T06:24:03.969Z,16.20
2018-06-14T06:26:32.462Z,16.40
2018-06-14T06:29:00.962Z,16.20
2018-06-14T06:31:29.430Z,16.20
2018-06-14T06:33:57.909Z,16.40
2018-06-14T06:36:26.439Z,16.40
2018-06-14T06:38:54.978Z,16.30
2018-06-14T06:41:23.602Z,16.60
2018-06-14T06:43:52.679Z,16.90
2018-06-14T06:46:21.240Z,17.10
2018-06-14T06:48:49.757Z,17.40
2018-06-14T06:51:18.244Z,17.50
2018-06-14T06:53:47.599Z,17.70
2018-06-14T06:56:16.779Z,17.80
2018-06-14T06:58:46.168Z,17.90
2018-06-14T07:01:15.310Z,17.70
2018-06-14T07:03:44.426Z,17.50
2018-06-14T07:06:13.108Z,17.80
2018-06-14T07:08:41.570Z,18.10
2018-06-14T07:11:10.049Z,18.20
2018-06-14T07:13:39.370Z,18.20
2018-06-14T07:16:07.905Z,17.90
2018-06-14T07:18:36.452Z,17.60
2018-06-14T07:21:05.011Z,17.50
2018-06-14T07:23:33.674Z,17.30
2018-06-14T07:26:02.368Z,17.60
2018-06-14T07:28:31.761Z,17.90
2018-06-14T07:31:01.003Z,18.30
2018-06-14T07:33:29.657Z,18.70
2018-06-14T07:35:58.210Z,19.10
2018-06-14T07:38:26.724Z,19.00
2018-06-14T07:40:55.224Z,18.60
2018-06-14T07:43:23.837Z,18.20
2018-06-14T07:45:52.443Z,18.50
2018-06-14T07:48:20.971Z,19.10
2018-06-14T07:50:49.464Z,19.60
2018-06-14T07:53:19.114Z,19.70
2018-06-14T07:55:47.673Z,19.60
2018-06-14T07:58:16.180Z,18.70
2018-06-14T08:00:44.781Z,18.20
2018-06-14T08:03:13.470Z,18.10
2018-06-14T08:05:42.006Z,18.20
2018-06-14T08:08:10.516Z,18.40
2018-06-14T08:10:38.994Z,18.30
2018-06-14T08:13:07.624Z,18.70
2018-06-14T08:15:36.771Z,18.90
2018-06-14T08:18:05.350Z,19.20
2018-06-14T08:20:33.950Z,19.30
2018-06-14T08:23:02.514Z,19.50
2018-06-14T08:25:31.179Z,19.60
2018-06-14T08:27:59.821Z,19.10
2018-06-14T08:30:28.404Z,18.30
2018-06-14T08:32:56.961Z,18.40
2018-06-14T08:35:25.510Z,18.90
2018-06-14T08:37:54.055Z,19.20
2018-06-14T08:40:22.750Z,19.20
2018-06-14T08:42:52.068Z,19.00
2018-06-14T08:45:20.609Z,19.00
2018-06-14T08:47:49.264Z,18.80
2018-06-14T08:50:17.964Z,19.00
2018-06-14T08:52:46.584Z,19.10
2018-06-14T08:55:15.124Z,19.60
2018-06-14T08:57:44.320Z,19.70
2018-06-14T09:00:13.533Z,20.00
2018-06-14T09:02:42.069Z,20.40
2018-06-14T09:05:10.727Z,20.50
2018-06-14T09:07:39.276Z,20.60
2018-06-14T09:10:07.955Z,20.50
2018-06-14T09:12:36.511Z,20.50
2018-06-14T09:15:05.018Z,20.40
2018-06-14T09:17:33.628Z,20.40
2018-06-14T09:20:02.711Z,20.40
2018-06-14T09:22:31.215Z,20.60
2018-06-14T09:24:59.832Z,20.60
2018-06-14T09:27:28.393Z,20.60
2018-06-14T09:29:56.977Z,20.60
2018-06-14T09:32:25.484Z,20.30
2018-06-14T09:34:54.073Z,20.30
2018-06-14T09:37:22.646Z,20.60
2018-06-14T09:39:51.119Z,20.80
2018-06-14T09:42:19.586Z,20.90
2018-06-14T09:44:48.069Z,20.90
2018-06-14T09:47:16.569Z,21.20
2018-06-14T09:49:45.043Z,21.40
2018-06-14T09:52:13.578Z,21.10
2018-06-14T09:54:42.789Z,21.60
2018-06-14T09:57:12.037Z,21.80
2018-06-14T09:59:41.023Z,21.70
2018-06-14T10:02:09.518Z,21.80
2018-06-14T10:04:38.263Z,21.90
2018-06-14T10:07:06.806Z,21.90
2018-06-14T10:09:36.017Z,21.90
2018-06-14T10:12:04.532Z,22.20
2018-06-14T10:14:33.028Z,22.10
2018-06-14T10:17:02.781Z,22.10
2018-06-14T10:19:31.207Z,22.30
2018-06-14T10:21:59.674Z,22.70
2018-06-14T10:24:28.176Z,22.90
2018-06-14T10:26:56.711Z,22.90
2018-06-14T10:29:25.209Z,23.10
2018-06-14T10:31:53.861Z,23.20
2018-06-14T10:34:22.947Z,23.00
2018-06-14T10:36:51.602Z,23.10
2018-06-14T10:39:20.176Z,23.00
2018-06-14T10:41:48.646Z,23.20
2018-06-14T10:44:17.304Z,23.60
2018-06-14T10:46:45.876Z,23.60
2018-06-14T10:49:14.405Z,23.20
2018-06-14T10:51:43.007Z,23.30
2018-06-14T10:54:12.317Z,23.70
2018-06-14T10:56:40.794Z,24.00
2018-06-14T10:59:09.311Z,24.10
2018-06-14T11:01:37.953Z,24.20
2018-06-14T11:04:06.469Z,24.10
2018-06-14T11:06:35.004Z,23.80
2018-06-14T11:09:04.841Z,23.70
2018-06-14T11:11:33.805Z,24.10
2018-06-14T11:14:03.113Z,24.00
2018-06-14T11:16:31.555Z,23.70
2018-06-14T11:19:00.894Z,23.00
2018-06-14T11:21:29.459Z,22.90
2018-06-14T11:23:58.037Z,21.70
2018-06-14T11:26:27.229Z,21.60
2018-06-14T11:28:55.758Z,21.90
2018-06-14T11:31:24.400Z,21.90
2018-06-14T11:33:53.619Z,21.80
2018-06-14T11:36:22.196Z,21.30
2018-06-14T11:38:50.764Z,20.90
2018-06-14T11:41:19.240Z,21.10
2018-06-14T11:43:47.852Z,20.90
2018-06-14T11:46:16.459Z,20.60
2018-06-14T11:48:51.698Z,20.60
2018-06-14T11:51:20.208Z,20.80
2018-06-14T11:53:48.716Z,21.20
2018-06-14T11:56:17.305Z,22.20
2018-06-14T11:58:46.236Z,22.70
2018-06-14T12:01:14.857Z,22.20
2018-06-14T12:03:43.507Z,21.60
2018-06-14T12:06:12.067Z,21.50
2018-06-14T12:08:41.191Z,21.10
2018-06-14T12:11:09.859Z,20.80
2018-06-14T12:13:38.581Z,20.80
2018-06-14T12:16:07.179Z,20.70
2018-06-14T12:18:35.771Z,21.30
2018-06-14T12:21:04.377Z,21.60
2018-06-14T12:23:33.023Z,21.10
2018-06-14T12:26:01.711Z,21.20
2018-06-14T12:28:30.247Z,21.30
2018-06-14T12:30:58.846Z,21.10
2018-06-14T12:33:27.455Z,20.90
2018-06-14T12:35:56.207Z,20.90
2018-06-14T12:38:24.934Z,20.50
2018-06-14T12:40:53.545Z,20.60
2018-06-14T12:43:22.362Z,20.70
2018-06-14T12:52:33.328Z,21.00
2018-06-14T12:58:27.805Z,20.80
2018-06-14T13:00:56.374Z,20.90
2018-06-14T13:03:24.822Z,21.00
2018-06-14T13:05:53.417Z,21.30
2018-06-14T13:08:22.027Z,21.40
2018-06-14T13:10:50.544Z,21.70
2018-06-14T13:13:19.411Z,22.60
2018-06-14T13:15:48.159Z,22.50
2018-06-14T13:18:16.617Z,22.30
2018-06-14T13:20:45.121Z,22.10
2018-06-14T13:23:13.607Z,21.70
2018-06-14T13:25:42.109Z,21.50
2018-06-14T13:28:10.635Z,21.80
2018-06-14T13:30:39.215Z,22.20
2018-06-14T13:33:07.668Z,22.30
2018-06-14T13:35:36.891Z,22.20
2018-06-14T13:38:05.498Z,22.80
2018-06-14T13:40:34.673Z,22.80
2018-06-14T13:43:03.278Z,23.00
2018-06-14T13:45:31.792Z,23.70
2018-06-14T13:48:01.430Z,23.50
2018-06-14T13:50:30.024Z,23.70
2018-06-14T13:52:58.561Z,24.00
2018-06-14T13:55:27.368Z,23.90
2018-06-14T13:57:55.773Z,24.00
2018-06-14T14:00:24.282Z,24.40
2018-06-14T14:02:53.926Z,24.50
2018-06-14T14:05:23.177Z,24.60
2018-06-14T14:07:51.721Z,23.90
2018-06-14T14:10:20.278Z,23.60
2018-06-14T14:12:48.798Z,23.80
2018-06-14T14:15:17.332Z,24.00
2018-06-14T14:17:45.847Z,24.10
2018-06-14T14:20:15.048Z,23.60
2018-06-14T14:22:43.510Z,23.30
2018-06-14T14:25:11.967Z,23.50
2018-06-14T14:27:40.570Z,23.70
2018-06-14T14:30:09.118Z,23.80
2018-06-14T14:32:37.596Z,22.50
2018-06-14T14:35:06.968Z,21.90
2018-06-14T14:37:35.449Z,21.60
2018-06-14T14:40:04.032Z,21.40
2018-06-14T14:42:32.510Z,21.60
2018-06-14T14:45:01.517Z,22.10
2018-06-14T14:47:30.064Z,22.10
2018-06-14T14:49:58.594Z,22.30
2018-06-14T14:52:27.122Z,22.50
2018-06-14T14:54:55.741Z,22.70
2018-06-14T14:57:24.966Z,22.30
2018-06-14T14:59:53.570Z,22.40
2018-06-14T15:02:22.141Z,22.20
2018-06-14T15:04:50.973Z,22.00
2018-06-14T15:07:19.472Z,21.70
2018-06-14T15:09:48.069Z,21.80
2018-06-14T15:12:17.220Z,22.10
2018-06-14T15:14:45.734Z,21.70
2018-06-14T15:17:14.172Z,21.70
2018-06-14T15:19:42.803Z,21.90
2018-06-14T15:22:11.472Z,22.10
2018-06-14T15:24:40.048Z,22.10
2018-06-14T15:27:08.585Z,22.00
2018-06-14T15:29:37.189Z,22.10
2018-06-14T15:32:05.789Z,21.60
2018-06-14T15:34:34.266Z,22.00
2018-06-14T15:37:03.482Z,22.00
2018-06-14T15:39:32.008Z,22.10
2018-06-14T15:42:00.487Z,22.00
2018-06-14T15:44:29.676Z,21.70
2018-06-14T15:46:58.202Z,21.60
2018-06-14T15:49:26.713Z,21.30
2018-06-14T15:51:55.184Z,21.30
2018-06-14T15:54:23.927Z,21.50
2018-06-14T15:56:52.447Z,21.50
2018-06-14T15:59:20.952Z,21.50
2018-06-14T16:01:49.536Z,21.70
2018-06-14T16:04:18.054Z,21.90
2018-06-14T16:06:46.699Z,21.70
2018-06-14T16:09:15.204Z,21.70
2018-06-14T16:11:43.722Z,22.00
2018-06-14T16:14:12.317Z,21.80
2018-06-14T16:16:40.824Z,21.70
2018-06-14T16:19:10.068Z,21.60
2018-06-14T16:21:39.090Z,21.50
2018-06-14T16:24:07.651Z,21.50
2018-06-14T16:26:36.173Z,21.50
2018-06-14T16:29:04.839Z,21.70
2018-06-14T16:31:33.435Z,21.70
2018-06-14T16:34:01.988Z,21.60
2018-06-14T16:36:30.589Z,21.40
2018-06-14T16:38:59.877Z,21.40
2018-06-14T16:41:28.483Z,21.50
2018-06-14T16:43:57.721Z,21.40
2018-06-14T16:46:26.313Z,21.30
2018-06-14T16:48:54.936Z,21.50
2018-06-14T16:51:23.465Z,21.60
2018-06-14T16:53:52.090Z,21.70
2018-06-14T16:56:20.606Z,21.80
2018-06-14T16:58:49.226Z,21.60
2018-06-14T17:01:17.883Z,21.40
2018-06-14T17:03:46.309Z,21.20
2018-06-14T17:06:14.985Z,21.30
2018-06-14T17:08:43.530Z,21.40
2018-06-14T17:11:12.104Z,21.40
2018-06-14T17:13:40.693Z,21.50
2018-06-14T17:16:09.364Z,21.30
2018-06-14T17:18:37.866Z,21.00
2018-06-14T17:21:06.446Z,20.90
2018-06-14T17:23:35.031Z,20.70
2018-06-14T17:26:03.609Z,20.60
2018-06-14T17:28:32.211Z,20.40
2018-06-14T17:31:00.727Z,20.50
2018-06-14T17:42:19.917Z,20.20
2018-06-14T17:48:20.473Z,20.20
2018-06-14T17:50:49.182Z,20.20
2018-06-14T17:53:17.851Z,20.20
2018-06-14T17:55:46.341Z,20.20
2018-06-14T17:58:15.478Z,20.20
2018-06-14T18:00:44.428Z,20.20
2018-06-14T18:03:13.101Z,20.00
2018-06-14T18:05:41.572Z,20.00
2018-06-14T18:08:10.158Z,20.00
2018-06-14T18:10:38.661Z,19.90
2018-06-14T18:13:07.342Z,19.90
2018-06-14T18:15:35.804Z,19.80
2018-06-14T18:18:05.074Z,19.80
2018-06-14T18:20:33.555Z,19.90
2018-06-14T18:23:01.986Z,19.90
2018-06-14T18:25:30.529Z,19.90
2018-06-14T18:27:59.060Z,19.80
2018-06-14T18:30:27.631Z,19.80
2018-06-14T18:32:56.070Z,19.80
2018-06-14T18:35:24.629Z,19.80
2018-06-14T18:37:53.242Z,19.80
2018-06-14T18:40:21.775Z,19.70
2018-06-14T18:42:50.395Z,19.60
2018-06-14T18:45:19.699Z,19.50
2018-06-14T18:47:48.648Z,19.40
2018-06-14T18:50:17.201Z,19.40
2018-06-14T18:52:45.698Z,19.30
2018-06-14T18:55:14.156Z,19.20
2018-06-14T18:57:42.793Z,19.20
2018-06-14T19:00:11.407Z,19.10
2018-06-14T19:02:39.926Z,19.10
2018-06-14T19:05:08.504Z,19.00
2018-06-14T19:07:37.746Z,18.90
2018-06-14T19:10:07.057Z,18.90
2018-06-14T19:12:35.558Z,18.90
2018-06-14T19:15:04.104Z,18.80
2018-06-14T19:17:32.634Z,18.80
2018-06-14T19:20:01.063Z,18.70
2018-06-14T19:22:29.473Z,18.70
2018-06-14T19:24:58.645Z,18.60
2018-06-14T19:27:27.215Z,18.60
2018-06-14T19:29:55.668Z,18.60
2018-06-14T19:32:24.250Z,18.60
2018-06-14T19:34:52.694Z,18.60
2018-06-14T19:37:21.359Z,18.60
2018-06-14T19:39:49.879Z,18.60
2018-06-14T19:42:18.258Z,18.60
2018-06-14T19:44:46.782Z,18.60
2018-06-14T19:47:15.301Z,18.60
2018-06-14T19:49:44.913Z,18.60
2018-06-14T19:52:13.730Z,18.50
2018-06-14T19:54:42.357Z,18.50
2018-06-14T19:57:10.817Z,18.50
2018-06-14T19:59:39.445Z,18.50
2018-06-14T20:02:07.944Z,18.40
2018-06-14T20:04:37.146Z,18.40
2018-06-14T20:07:05.725Z,18.40
2018-06-14T20:09:34.177Z,18.30
2018-06-14T20:12:02.656Z,18.30
2018-06-14T20:14:31.210Z,18.20
2018-06-14T20:16:59.807Z,18.20
2018-06-14T20:19:28.305Z,18.10
2018-06-14T20:21:56.887Z,18.10
2018-06-14T20:24:25.448Z,18.10
2018-06-14T20:26:53.888Z,18.00
2018-06-14T20:29:22.618Z,17.90
2018-06-14T20:31:51.121Z,17.90
2018-06-14T20:34:19.646Z,17.90
2018-06-14T20:36:48.301Z,17.80
2018-06-14T20:39:16.786Z,17.70
2018-06-14T20:41:45.496Z,17.60
2018-06-14T20:44:14.533Z,17.50
2018-06-14T20:46:43.162Z,17.40
2018-06-14T20:49:11.770Z,17.30
2018-06-14T20:51:40.297Z,17.20
2018-06-14T20:54:08.941Z,16.90
2018-06-14T20:56:38.134Z,16.70
2018-06-14T20:59:06.796Z,16.60
2018-06-14T21:01:35.434Z,16.70
2018-06-14T21:04:04.056Z,16.60
2018-06-14T21:06:32.623Z,16.60
2018-06-14T21:09:01.183Z,16.70
2018-06-14T21:11:29.662Z,16.70
2018-06-14T21:13:58.151Z,16.80
2018-06-14T21:16:27.205Z,16.80
2018-06-14T21:18:55.772Z,16.80
2018-06-14T21:21:24.223Z,16.80
2018-06-14T21:23:52.747Z,16.90
2018-06-14T21:26:21.141Z,16.90
2018-06-14T21:28:49.813Z,16.90
2018-06-14T21:31:18.396Z,16.90
2018-06-14T21:33:47.223Z,16.90
2018-06-14T21:36:15.730Z,16.80
2018-06-14T21:38:44.814Z,16.70
2018-06-14T21:41:13.363Z,16.70
2018-06-14T21:43:41.854Z,16.60
2018-06-14T21:46:11.093Z,16.50
2018-06-14T21:48:40.232Z,16.50
2018-06-14T21:51:08.775Z,16.50
2018-06-14T21:53:37.229Z,16.40
2018-06-14T21:56:05.885Z,16.30
2018-06-14T21:58:34.385Z,16.30
2018-06-14T22:01:02.908Z,16.30
2018-06-14T22:03:36.650Z,16.20
2018-06-14T22:06:05.168Z,16.20
2018-06-14T22:08:33.613Z,16.20
2018-06-14T22:11:03.361Z,16.20
2018-06-14T22:13:31.848Z,16.20
2018-06-14T22:16:00.343Z,16.20
2018-06-14T22:18:28.951Z,16.30
2018-06-14T22:20:57.441Z,16.30
2018-06-14T22:23:26.025Z,16.30
2018-06-14T22:25:54.534Z,16.40
2018-06-14T22:28:23.764Z,16.30
2018-06-14T22:30:52.377Z,16.20
2018-06-14T22:33:32.036Z,16.10
2018-06-14T22:36:00.899Z,16.10
2018-06-14T22:38:29.398Z,16.00
2018-06-14T22:40:57.956Z,15.90
2018-06-14T22:43:26.400Z,15.80
2018-06-14T22:45:55.066Z,15.90
2018-06-14T22:48:24.381Z,15.90
2018-06-14T22:51:04.002Z,15.90
2018-06-14T22:53:32.534Z,15.90
2018-06-14T22:58:29.132Z,15.90
2018-06-14T23:02:03.401Z,15.90
2018-06-14T23:04:32.342Z,16.00
2018-06-14T23:07:00.785Z,16.10
2018-06-14T23:10:41.157Z,16.10
2018-06-14T23:13:11.810Z,16.10
2018-06-14T23:15:40.339Z,16.10
2018-06-14T23:18:08.768Z,16.10
2018-06-14T23:20:37.630Z,16.10
2018-06-14T23:23:06.602Z,16.10
2018-06-14T23:25:36.234Z,16.10
2018-06-14T23:28:05.398Z,16.10
2018-06-14T23:30:34.007Z,16.10
2018-06-14T23:33:02.655Z,16.10
2018-06-14T23:35:31.116Z,16.10
2018-06-14T23:38:06.935Z,16.00
2018-06-14T23:40:35.398Z,15.90
2018-06-14T23:43:04.082Z,15.90
2018-06-14T23:45:32.638Z,15.90
2018-06-14T23:48:01.156Z,15.90
2018-06-14T23:50:30.229Z,15.90
2018-06-14T23:52:58.812Z,15.90
2018-06-14T23:55:27.533Z,15.90
2018-06-14T23:57:56.033Z,15.90
